sensor_id;sensor_type;location;lat;lon;timestamp;P1;durP1;ratioP1;P2;durP2;ratioP2
55575;SDS011;41437;45.478;9.116;2023-03-23T00:01:56;8.07;;;4.95;;
55575;SDS011;41437;45.478;9.116;2023-03-23T00:04:58;8.20;;;5.05;;
55575;SDS011;41437;45.478;9.116;2023-03-23T00:08:00;8.48;;;4.72;;
55575;SDS011;41437;45.478;9.116;2023-03-23T00:11:05;8.25;;;4.82;;
55575;SDS011;41437;45.478;9.116;2023-03-23T00:17:12;8.07;;;4.30;;
55575;SDS011;41437;45.478;9.116;2023-03-23T00:20:14;7.38;;;4.32;;
55575;SDS011;41437;45.478;9.116;2023-03-23T00:23:16;7.75;;;4.75;;
55575;SDS011;41437;45.478;9.116;2023-03-23T00:26:24;5.88;;;4.25;;
55575;SDS011;41437;45.478;9.116;2023-03-23T00:29:28;6.45;;;4.50;;
55575;SDS011;41437;45.478;9.116;2023-03-23T00:32:29;7.47;;;4.90;;
55575;SDS011;41437;45.478;9.116;2023-03-23T00:35:31;8.13;;;4.38;;
55575;SDS011;41437;45.478;9.116;2023-03-23T00:38:32;8.40;;;4.95;;
55575;SDS011;41437;45.478;9.116;2023-03-23T00:41:35;7.45;;;4.57;;
55575;SDS011;41437;45.478;9.116;2023-03-23T00:44:38;7.45;;;4.40;;
55575;SDS011;41437;45.478;9.116;2023-03-23T00:47:39;9.07;;;5.32;;
55575;SDS011;41437;45.478;9.116;2023-03-23T00:50:41;9.57;;;4.70;;
55575;SDS011;41437;45.478;9.116;2023-03-23T00:53:43;7.00;;;4.05;;
55575;SDS011;41437;45.478;9.116;2023-03-23T00:56:46;7.00;;;4.50;;
55575;SDS011;41437;45.478;9.116;2023-03-23T00:59:48;6.35;;;3.95;;
55575;SDS011;41437;45.478;9.116;2023-03-23T01:02:49;7.07;;;4.30;;
55575;SDS011;41437;45.478;9.116;2023-03-23T01:05:55;7.32;;;4.40;;
55575;SDS011;41437;45.478;9.116;2023-03-23T01:08:57;7.97;;;4.70;;
55575;SDS011;41437;45.478;9.116;2023-03-23T01:12:02;6.88;;;4.40;;
55575;SDS011;41437;45.478;9.116;2023-03-23T01:15:04;7.73;;;4.30;;
55575;SDS011;41437;45.478;9.116;2023-03-23T01:18:06;7.38;;;4.72;;
55575;SDS011;41437;45.478;9.116;2023-03-23T01:21:08;8.75;;;4.80;;
55575;SDS011;41437;45.478;9.116;2023-03-23T01:24:11;8.93;;;5.18;;
55575;SDS011;41437;45.478;9.116;2023-03-23T01:27:14;7.82;;;5.20;;
55575;SDS011;41437;45.478;9.116;2023-03-23T01:30:16;7.53;;;4.65;;
55575;SDS011;41437;45.478;9.116;2023-03-23T01:33:17;8.10;;;4.70;;
55575;SDS011;41437;45.478;9.116;2023-03-23T01:36:19;9.40;;;5.03;;
55575;SDS011;41437;45.478;9.116;2023-03-23T01:39:22;7.90;;;4.82;;
55575;SDS011;41437;45.478;9.116;2023-03-23T01:42:29;8.23;;;4.95;;
55575;SDS011;41437;45.478;9.116;2023-03-23T01:45:32;6.47;;;5.07;;
55575;SDS011;41437;45.478;9.116;2023-03-23T01:48:35;8.25;;;5.30;;
55575;SDS011;41437;45.478;9.116;2023-03-23T01:51:40;8.48;;;5.25;;
55575;SDS011;41437;45.478;9.116;2023-03-23T01:54:44;8.50;;;5.35;;
55575;SDS011;41437;45.478;9.116;2023-03-23T01:57:49;9.45;;;5.15;;
55575;SDS011;41437;45.478;9.116;2023-03-23T02:00:52;8.63;;;5.55;;
55575;SDS011;41437;45.478;9.116;2023-03-23T02:03:55;8.43;;;5.32;;
55575;SDS011;41437;45.478;9.116;2023-03-23T02:06:58;7.03;;;5.50;;
55575;SDS011;41437;45.478;9.116;2023-03-23T02:10:00;7.57;;;5.78;;
55575;SDS011;41437;45.478;9.116;2023-03-23T02:13:03;7.43;;;5.32;;
55575;SDS011;41437;45.478;9.116;2023-03-23T02:16:08;8.02;;;5.70;;
55575;SDS011;41437;45.478;9.116;2023-03-23T02:19:23;8.02;;;5.80;;
55575;SDS011;41437;45.478;9.116;2023-03-23T02:26:11;9.88;;;5.60;;
55575;SDS011;41437;45.478;9.116;2023-03-23T02:29:33;8.40;;;6.10;;
55575;SDS011;41437;45.478;9.116;2023-03-23T02:36:29;10.10;;;5.70;;
55575;SDS011;41437;45.478;9.116;2023-03-23T02:39:37;7.03;;;5.25;;
55575;SDS011;41437;45.478;9.116;2023-03-23T02:42:45;9.43;;;5.60;;
55575;SDS011;41437;45.478;9.116;2023-03-23T02:45:50;9.00;;;5.30;;
55575;SDS011;41437;45.478;9.116;2023-03-23T02:48:53;8.02;;;5.60;;
55575;SDS011;41437;45.478;9.116;2023-03-23T02:55:01;11.25;;;6.10;;
55575;SDS011;41437;45.478;9.116;2023-03-23T02:58:03;7.38;;;5.65;;
55575;SDS011;41437;45.478;9.116;2023-03-23T03:01:16;10.93;;;6.40;;
55575;SDS011;41437;45.478;9.116;2023-03-23T03:04:53;8.65;;;5.65;;
55575;SDS011;41437;45.478;9.116;2023-03-23T03:08:03;9.25;;;6.28;;
55575;SDS011;41437;45.478;9.116;2023-03-23T03:11:14;8.90;;;5.90;;
55575;SDS011;41437;45.478;9.116;2023-03-23T03:14:23;8.88;;;6.05;;
55575;SDS011;41437;45.478;9.116;2023-03-23T03:17:28;10.63;;;6.80;;
55575;SDS011;41437;45.478;9.116;2023-03-23T03:20:32;10.23;;;6.32;;
55575;SDS011;41437;45.478;9.116;2023-03-23T03:23:40;9.73;;;6.38;;
55575;SDS011;41437;45.478;9.116;2023-03-23T03:26:46;10.75;;;6.78;;
55575;SDS011;41437;45.478;9.116;2023-03-23T03:29:51;11.73;;;6.72;;
55575;SDS011;41437;45.478;9.116;2023-03-23T03:32:56;9.77;;;6.30;;
55575;SDS011;41437;45.478;9.116;2023-03-23T03:36:01;9.52;;;6.60;;
55575;SDS011;41437;45.478;9.116;2023-03-23T03:39:08;8.30;;;6.15;;
55575;SDS011;41437;45.478;9.116;2023-03-23T03:42:10;10.50;;;6.40;;
55575;SDS011;41437;45.478;9.116;2023-03-23T03:45:12;8.70;;;6.00;;
55575;SDS011;41437;45.478;9.116;2023-03-23T03:48:17;9.80;;;5.90;;
55575;SDS011;41437;45.478;9.116;2023-03-23T03:51:18;11.18;;;6.28;;
55575;SDS011;41437;45.478;9.116;2023-03-23T03:54:21;8.45;;;6.03;;
55575;SDS011;41437;45.478;9.116;2023-03-23T03:57:23;9.13;;;6.18;;
55575;SDS011;41437;45.478;9.116;2023-03-23T04:00:25;8.60;;;5.90;;
55575;SDS011;41437;45.478;9.116;2023-03-23T04:03:26;8.00;;;5.72;;
55575;SDS011;41437;45.478;9.116;2023-03-23T04:06:28;9.02;;;6.00;;
55575;SDS011;41437;45.478;9.116;2023-03-23T04:09:31;8.80;;;6.00;;
55575;SDS011;41437;45.478;9.116;2023-03-23T04:12:33;10.70;;;5.88;;
55575;SDS011;41437;45.478;9.116;2023-03-23T04:15:35;10.80;;;6.00;;
55575;SDS011;41437;45.478;9.116;2023-03-23T04:18:38;8.98;;;5.90;;
55575;SDS011;41437;45.478;9.116;2023-03-23T04:21:42;7.25;;;5.43;;
55575;SDS011;41437;45.478;9.116;2023-03-23T04:24:47;8.70;;;5.55;;
55575;SDS011;41437;45.478;9.116;2023-03-23T04:27:48;10.07;;;6.30;;
55575;SDS011;41437;45.478;9.116;2023-03-23T04:30:53;8.55;;;6.00;;
55575;SDS011;41437;45.478;9.116;2023-03-23T04:33:56;11.00;;;5.78;;
55575;SDS011;41437;45.478;9.116;2023-03-23T04:37:00;8.68;;;6.28;;
55575;SDS011;41437;45.478;9.116;2023-03-23T04:40:03;12.18;;;6.20;;
55575;SDS011;41437;45.478;9.116;2023-03-23T04:43:11;10.65;;;6.60;;
55575;SDS011;41437;45.478;9.116;2023-03-23T04:46:14;11.35;;;6.72;;
55575;SDS011;41437;45.478;9.116;2023-03-23T04:49:18;12.63;;;6.55;;
55575;SDS011;41437;45.478;9.116;2023-03-23T04:52:20;11.23;;;6.63;;
55575;SDS011;41437;45.478;9.116;2023-03-23T04:55:24;9.38;;;6.75;;
55575;SDS011;41437;45.478;9.116;2023-03-23T04:58:26;9.85;;;6.50;;
55575;SDS011;41437;45.478;9.116;2023-03-23T05:01:28;10.57;;;6.88;;
55575;SDS011;41437;45.478;9.116;2023-03-23T05:04:29;11.60;;;7.05;;
55575;SDS011;41437;45.478;9.116;2023-03-23T05:10:36;10.10;;;6.82;;
55575;SDS011;41437;45.478;9.116;2023-03-23T05:13:38;9.27;;;6.88;;
55575;SDS011;41437;45.478;9.116;2023-03-23T05:16:39;9.75;;;6.55;;
55575;SDS011;41437;45.478;9.116;2023-03-23T05:19:41;11.38;;;7.18;;
55575;SDS011;41437;45.478;9.116;2023-03-23T05:22:43;10.65;;;6.85;;
55575;SDS011;41437;45.478;9.116;2023-03-23T05:28:55;11.75;;;7.30;;
55575;SDS011;41437;45.478;9.116;2023-03-23T05:31:57;11.25;;;7.65;;
55575;SDS011;41437;45.478;9.116;2023-03-23T05:34:59;10.40;;;7.78;;
55575;SDS011;41437;45.478;9.116;2023-03-23T05:38:03;10.85;;;7.55;;
55575;SDS011;41437;45.478;9.116;2023-03-23T05:41:06;9.80;;;7.40;;
55575;SDS011;41437;45.478;9.116;2023-03-23T05:44:07;9.57;;;7.23;;
55575;SDS011;41437;45.478;9.116;2023-03-23T05:47:13;9.70;;;7.43;;
55575;SDS011;41437;45.478;9.116;2023-03-23T05:50:15;11.30;;;7.55;;
55575;SDS011;41437;45.478;9.116;2023-03-23T05:53:17;14.57;;;7.88;;
55575;SDS011;41437;45.478;9.116;2023-03-23T05:56:21;11.55;;;7.97;;
55575;SDS011;41437;45.478;9.116;2023-03-23T05:59:23;11.65;;;7.78;;
55575;SDS011;41437;45.478;9.116;2023-03-23T06:02:24;13.35;;;8.00;;
55575;SDS011;41437;45.478;9.116;2023-03-23T06:05:29;11.80;;;8.00;;
55575;SDS011;41437;45.478;9.116;2023-03-23T06:08:30;10.60;;;7.50;;
55575;SDS011;41437;45.478;9.116;2023-03-23T06:11:34;13.00;;;7.95;;
55575;SDS011;41437;45.478;9.116;2023-03-23T06:14:35;13.15;;;7.60;;
55575;SDS011;41437;45.478;9.116;2023-03-23T06:17:37;11.40;;;7.40;;
55575;SDS011;41437;45.478;9.116;2023-03-23T06:20:39;12.35;;;7.65;;
55575;SDS011;41437;45.478;9.116;2023-03-23T06:23:43;8.93;;;6.50;;
55575;SDS011;41437;45.478;9.116;2023-03-23T06:26:47;12.63;;;8.02;;
55575;SDS011;41437;45.478;9.116;2023-03-23T06:29:50;10.57;;;7.05;;
55575;SDS011;41437;45.478;9.116;2023-03-23T06:32:51;9.95;;;6.90;;
55575;SDS011;41437;45.478;9.116;2023-03-23T06:35:54;10.82;;;7.40;;
55575;SDS011;41437;45.478;9.116;2023-03-23T06:38:56;9.80;;;7.40;;
55575;SDS011;41437;45.478;9.116;2023-03-23T06:41:59;13.10;;;7.85;;
55575;SDS011;41437;45.478;9.116;2023-03-23T06:45:00;15.70;;;7.55;;
55575;SDS011;41437;45.478;9.116;2023-03-23T06:48:02;11.68;;;7.53;;
55575;SDS011;41437;45.478;9.116;2023-03-23T06:51:04;11.75;;;7.28;;
55575;SDS011;41437;45.478;9.116;2023-03-23T06:54:06;11.82;;;7.22;;
55575;SDS011;41437;45.478;9.116;2023-03-23T06:57:09;10.30;;;6.78;;
55575;SDS011;41437;45.478;9.116;2023-03-23T07:00:11;12.13;;;7.03;;
55575;SDS011;41437;45.478;9.116;2023-03-23T07:03:18;11.48;;;7.03;;
55575;SDS011;41437;45.478;9.116;2023-03-23T07:06:19;9.38;;;6.15;;
55575;SDS011;41437;45.478;9.116;2023-03-23T07:09:21;9.48;;;6.22;;
55575;SDS011;41437;45.478;9.116;2023-03-23T07:12:24;9.82;;;6.97;;
55575;SDS011;41437;45.478;9.116;2023-03-23T07:18:28;17.42;;;7.20;;
55575;SDS011;41437;45.478;9.116;2023-03-23T07:21:30;12.10;;;6.72;;
55575;SDS011;41437;45.478;9.116;2023-03-23T07:24:32;10.75;;;6.38;;
55575;SDS011;41437;45.478;9.116;2023-03-23T07:27:34;11.95;;;6.30;;
55575;SDS011;41437;45.478;9.116;2023-03-23T07:30:36;11.80;;;6.03;;
55575;SDS011;41437;45.478;9.116;2023-03-23T07:33:38;8.80;;;6.28;;
55575;SDS011;41437;45.478;9.116;2023-03-23T07:36:40;10.18;;;5.95;;
55575;SDS011;41437;45.478;9.116;2023-03-23T07:39:41;9.05;;;6.28;;
55575;SDS011;41437;45.478;9.116;2023-03-23T07:42:45;11.00;;;6.25;;
55575;SDS011;41437;45.478;9.116;2023-03-23T07:45:52;10.60;;;5.93;;
55575;SDS011;41437;45.478;9.116;2023-03-23T07:48:53;7.38;;;5.50;;
55575;SDS011;41437;45.478;9.116;2023-03-23T07:51:55;11.52;;;5.70;;
55575;SDS011;41437;45.478;9.116;2023-03-23T07:54:57;9.07;;;6.00;;
55575;SDS011;41437;45.478;9.116;2023-03-23T07:58:00;8.85;;;5.95;;
55575;SDS011;41437;45.478;9.116;2023-03-23T08:01:01;8.20;;;5.82;;
55575;SDS011;41437;45.478;9.116;2023-03-23T08:04:04;9.13;;;6.30;;
55575;SDS011;41437;45.478;9.116;2023-03-23T08:07:06;11.60;;;6.35;;
55575;SDS011;41437;45.478;9.116;2023-03-23T08:10:08;10.07;;;6.35;;
55575;SDS011;41437;45.478;9.116;2023-03-23T08:13:18;8.40;;;6.50;;
55575;SDS011;41437;45.478;9.116;2023-03-23T08:16:19;11.85;;;6.80;;
55575;SDS011;41437;45.478;9.116;2023-03-23T08:19:21;10.48;;;6.38;;
55575;SDS011;41437;45.478;9.116;2023-03-23T08:22:39;11.02;;;6.40;;
55575;SDS011;41437;45.478;9.116;2023-03-23T08:25:48;10.35;;;6.75;;
55575;SDS011;41437;45.478;9.116;2023-03-23T08:28:52;11.10;;;6.63;;
55575;SDS011;41437;45.478;9.116;2023-03-23T08:31:54;12.23;;;7.38;;
55575;SDS011;41437;45.478;9.116;2023-03-23T08:34:55;12.32;;;7.45;;
55575;SDS011;41437;45.478;9.116;2023-03-23T08:37:59;15.18;;;7.60;;
55575;SDS011;41437;45.478;9.116;2023-03-23T08:41:02;13.07;;;8.32;;
55575;SDS011;41437;45.478;9.116;2023-03-23T08:44:07;14.27;;;7.82;;
55575;SDS011;41437;45.478;9.116;2023-03-23T08:47:09;13.23;;;8.35;;
55575;SDS011;41437;45.478;9.116;2023-03-23T08:50:11;15.20;;;9.00;;
55575;SDS011;41437;45.478;9.116;2023-03-23T08:53:15;12.82;;;8.93;;
55575;SDS011;41437;45.478;9.116;2023-03-23T08:56:18;12.85;;;8.82;;
55575;SDS011;41437;45.478;9.116;2023-03-23T08:59:21;14.25;;;8.80;;
55575;SDS011;41437;45.478;9.116;2023-03-23T09:05:25;14.70;;;8.77;;
55575;SDS011;41437;45.478;9.116;2023-03-23T09:11:32;13.35;;;9.07;;
55575;SDS011;41437;45.478;9.116;2023-03-23T09:14:35;14.30;;;8.90;;
55575;SDS011;41437;45.478;9.116;2023-03-23T09:17:39;14.75;;;8.45;;
55575;SDS011;41437;45.478;9.116;2023-03-23T09:20:43;11.70;;;8.15;;
55575;SDS011;41437;45.478;9.116;2023-03-23T09:23:44;13.10;;;7.82;;
55575;SDS011;41437;45.478;9.116;2023-03-23T09:26:46;14.10;;;7.70;;
55575;SDS011;41437;45.478;9.116;2023-03-23T09:29:49;11.25;;;7.15;;
55575;SDS011;41437;45.478;9.116;2023-03-23T09:32:51;10.47;;;7.90;;
55575;SDS011;41437;45.478;9.116;2023-03-23T09:35:53;12.75;;;7.85;;
55575;SDS011;41437;45.478;9.116;2023-03-23T09:38:55;13.27;;;8.10;;
55575;SDS011;41437;45.478;9.116;2023-03-23T09:42:04;13.02;;;8.68;;
55575;SDS011;41437;45.478;9.116;2023-03-23T09:45:21;10.02;;;7.65;;
55575;SDS011;41437;45.478;9.116;2023-03-23T09:48:32;26.90;;;8.80;;
55575;SDS011;41437;45.478;9.116;2023-03-23T09:51:41;12.73;;;8.63;;
55575;SDS011;41437;45.478;9.116;2023-03-23T09:54:46;13.82;;;8.07;;
55575;SDS011;41437;45.478;9.116;2023-03-23T09:57:52;14.13;;;8.90;;
55575;SDS011;41437;45.478;9.116;2023-03-23T10:01:02;18.60;;;8.60;;
55575;SDS011;41437;45.478;9.116;2023-03-23T10:04:10;16.60;;;9.10;;
55575;SDS011;41437;45.478;9.116;2023-03-23T10:07:17;14.52;;;8.77;;
55575;SDS011;41437;45.478;9.116;2023-03-23T10:10:19;12.93;;;8.85;;
55575;SDS011;41437;45.478;9.116;2023-03-23T10:13:28;14.80;;;9.00;;
55575;SDS011;41437;45.478;9.116;2023-03-23T10:16:45;21.02;;;9.82;;
55575;SDS011;41437;45.478;9.116;2023-03-23T10:19:59;13.45;;;9.50;;
55575;SDS011;41437;45.478;9.116;2023-03-23T10:23:14;15.80;;;9.80;;
55575;SDS011;41437;45.478;9.116;2023-03-23T10:26:28;12.13;;;9.77;;
55575;SDS011;41437;45.478;9.116;2023-03-23T10:29:35;19.40;;;10.80;;
55575;SDS011;41437;45.478;9.116;2023-03-23T10:32:46;17.00;;;9.20;;
55575;SDS011;41437;45.478;9.116;2023-03-23T10:35:53;13.40;;;9.10;;
55575;SDS011;41437;45.478;9.116;2023-03-23T10:39:01;12.38;;;9.02;;
55575;SDS011;41437;45.478;9.116;2023-03-23T10:42:07;13.43;;;9.88;;
55575;SDS011;41437;45.478;9.116;2023-03-23T10:45:12;14.32;;;9.70;;
55575;SDS011;41437;45.478;9.116;2023-03-23T10:48:22;18.33;;;9.32;;
55575;SDS011;41437;45.478;9.116;2023-03-23T10:51:30;19.95;;;8.73;;
55575;SDS011;41437;45.478;9.116;2023-03-23T10:54:37;14.75;;;8.93;;
55575;SDS011;41437;45.478;9.116;2023-03-23T10:57:59;12.85;;;8.13;;
55575;SDS011;41437;45.478;9.116;2023-03-23T11:01:03;14.02;;;8.65;;
55575;SDS011;41437;45.478;9.116;2023-03-23T11:04:12;13.55;;;8.82;;
55575;SDS011;41437;45.478;9.116;2023-03-23T11:07:17;20.52;;;9.13;;
55575;SDS011;41437;45.478;9.116;2023-03-23T11:10:22;16.42;;;9.20;;
55575;SDS011;41437;45.478;9.116;2023-03-23T11:13:29;15.77;;;10.18;;
55575;SDS011;41437;45.478;9.116;2023-03-23T11:16:34;13.82;;;9.52;;
55575;SDS011;41437;45.478;9.116;2023-03-23T11:19:37;13.85;;;10.23;;
55575;SDS011;41437;45.478;9.116;2023-03-23T11:22:40;12.93;;;9.30;;
55575;SDS011;41437;45.478;9.116;2023-03-23T11:28:55;15.32;;;10.38;;
55575;SDS011;41437;45.478;9.116;2023-03-23T11:32:02;16.38;;;11.52;;
55575;SDS011;41437;45.478;9.116;2023-03-23T11:35:15;15.02;;;11.50;;
55575;SDS011;41437;45.478;9.116;2023-03-23T11:38:19;13.20;;;10.32;;
55575;SDS011;41437;45.478;9.116;2023-03-23T11:41:22;12.05;;;10.60;;
55575;SDS011;41437;45.478;9.116;2023-03-23T11:44:31;14.55;;;11.10;;
55575;SDS011;41437;45.478;9.116;2023-03-23T11:47:36;16.10;;;12.00;;
55575;SDS011;41437;45.478;9.116;2023-03-23T11:50:49;18.80;;;11.90;;
55575;SDS011;41437;45.478;9.116;2023-03-23T11:53:54;16.67;;;12.57;;
55575;SDS011;41437;45.478;9.116;2023-03-23T11:57:01;18.88;;;11.95;;
55575;SDS011;41437;45.478;9.116;2023-03-23T12:00:10;15.02;;;11.35;;
55575;SDS011;41437;45.478;9.116;2023-03-23T12:03:15;15.47;;;11.50;;
55575;SDS011;41437;45.478;9.116;2023-03-23T12:06:34;14.95;;;11.73;;
55575;SDS011;41437;45.478;9.116;2023-03-23T12:09:46;18.27;;;12.07;;
55575;SDS011;41437;45.478;9.116;2023-03-23T12:12:53;14.23;;;11.40;;
55575;SDS011;41437;45.478;9.116;2023-03-23T12:16:06;19.73;;;12.23;;
55575;SDS011;41437;45.478;9.116;2023-03-23T12:19:20;16.88;;;12.70;;
55575;SDS011;41437;45.478;9.116;2023-03-23T12:23:06;17.38;;;12.10;;
55575;SDS011;41437;45.478;9.116;2023-03-23T12:26:19;14.93;;;10.52;;
55575;SDS011;41437;45.478;9.116;2023-03-23T12:29:33;15.10;;;10.75;;
55575;SDS011;41437;45.478;9.116;2023-03-23T12:32:44;16.55;;;10.27;;
55575;SDS011;41437;45.478;9.116;2023-03-23T12:36:13;14.48;;;9.75;;
55575;SDS011;41437;45.478;9.116;2023-03-23T12:43:13;24.55;;;10.32;;
55575;SDS011;41437;45.478;9.116;2023-03-23T12:46:34;13.60;;;9.25;;
55575;SDS011;41437;45.478;9.116;2023-03-23T12:49:46;12.32;;;9.07;;
55575;SDS011;41437;45.478;9.116;2023-03-23T12:52:54;12.23;;;8.85;;
55575;SDS011;41437;45.478;9.116;2023-03-23T12:56:06;14.13;;;9.02;;
55575;SDS011;41437;45.478;9.116;2023-03-23T12:59:17;12.18;;;9.15;;
55575;SDS011;41437;45.478;9.116;2023-03-23T13:02:24;12.05;;;9.35;;
55575;SDS011;41437;45.478;9.116;2023-03-23T13:05:34;15.70;;;9.48;;
55575;SDS011;41437;45.478;9.116;2023-03-23T13:08:41;15.75;;;11.07;;
55575;SDS011;41437;45.478;9.116;2023-03-23T13:11:51;17.77;;;10.77;;
55575;SDS011;41437;45.478;9.116;2023-03-23T13:14:59;14.65;;;9.57;;
55575;SDS011;41437;45.478;9.116;2023-03-23T13:18:08;12.48;;;9.75;;
55575;SDS011;41437;45.478;9.116;2023-03-23T13:21:15;15.20;;;9.13;;
55575;SDS011;41437;45.478;9.116;2023-03-23T13:24:21;12.88;;;9.40;;
55575;SDS011;41437;45.478;9.116;2023-03-23T13:27:28;12.60;;;9.40;;
55575;SDS011;41437;45.478;9.116;2023-03-23T13:30:31;12.10;;;9.68;;
55575;SDS011;41437;45.478;9.116;2023-03-23T13:33:34;17.90;;;9.93;;
55575;SDS011;41437;45.478;9.116;2023-03-23T13:36:38;14.52;;;9.30;;
55575;SDS011;41437;45.478;9.116;2023-03-23T13:39:47;13.25;;;9.55;;
55575;SDS011;41437;45.478;9.116;2023-03-23T13:42:55;10.50;;;8.80;;
55575;SDS011;41437;45.478;9.116;2023-03-23T13:46:06;14.40;;;9.40;;
55575;SDS011;41437;45.478;9.116;2023-03-23T13:49:17;11.77;;;8.13;;
55575;SDS011;41437;45.478;9.116;2023-03-23T13:52:23;13.70;;;8.65;;
55575;SDS011;41437;45.478;9.116;2023-03-23T13:55:39;11.93;;;9.38;;
55575;SDS011;41437;45.478;9.116;2023-03-23T13:58:48;13.10;;;9.25;;
55575;SDS011;41437;45.478;9.116;2023-03-23T14:01:52;12.43;;;9.10;;
55575;SDS011;41437;45.478;9.116;2023-03-23T14:04:55;14.27;;;9.00;;
55575;SDS011;41437;45.478;9.116;2023-03-23T14:07:58;11.43;;;8.23;;
55575;SDS011;41437;45.478;9.116;2023-03-23T14:11:09;14.20;;;9.55;;
55575;SDS011;41437;45.478;9.116;2023-03-23T14:14:17;15.57;;;9.15;;
55575;SDS011;41437;45.478;9.116;2023-03-23T14:17:24;14.95;;;9.48;;
55575;SDS011;41437;45.478;9.116;2023-03-23T14:20:30;13.07;;;9.45;;
55575;SDS011;41437;45.478;9.116;2023-03-23T14:23:34;12.00;;;9.18;;
55575;SDS011;41437;45.478;9.116;2023-03-23T14:26:36;13.52;;;8.80;;
55575;SDS011;41437;45.478;9.116;2023-03-23T14:29:42;12.30;;;9.00;;
55575;SDS011;41437;45.478;9.116;2023-03-23T14:32:45;11.88;;;9.13;;
55575;SDS011;41437;45.478;9.116;2023-03-23T14:35:48;10.57;;;8.15;;
55575;SDS011;41437;45.478;9.116;2023-03-23T14:38:58;14.05;;;8.70;;
55575;SDS011;41437;45.478;9.116;2023-03-23T14:42:03;11.68;;;7.45;;
55575;SDS011;41437;45.478;9.116;2023-03-23T14:45:12;8.70;;;6.93;;
55575;SDS011;41437;45.478;9.116;2023-03-23T14:48:17;12.23;;;7.22;;
55575;SDS011;41437;45.478;9.116;2023-03-23T14:51:19;11.38;;;7.90;;
55575;SDS011;41437;45.478;9.116;2023-03-23T14:54:22;11.50;;;7.38;;
55575;SDS011;41437;45.478;9.116;2023-03-23T14:57:26;13.20;;;7.28;;
55575;SDS011;41437;45.478;9.116;2023-03-23T15:00:32;9.82;;;7.15;;
55575;SDS011;41437;45.478;9.116;2023-03-23T15:03:36;10.48;;;7.57;;
55575;SDS011;41437;45.478;9.116;2023-03-23T15:06:42;10.77;;;7.47;;
55575;SDS011;41437;45.478;9.116;2023-03-23T15:09:47;11.02;;;7.60;;
55575;SDS011;41437;45.478;9.116;2023-03-23T15:12:49;13.93;;;8.00;;
55575;SDS011;41437;45.478;9.116;2023-03-23T15:16:03;14.57;;;7.70;;
55575;SDS011;41437;45.478;9.116;2023-03-23T15:19:10;11.55;;;7.03;;
55575;SDS011;41437;45.478;9.116;2023-03-23T15:22:18;10.40;;;7.32;;
55575;SDS011;41437;45.478;9.116;2023-03-23T15:25:22;11.43;;;6.72;;
55575;SDS011;41437;45.478;9.116;2023-03-23T15:28:30;10.60;;;7.07;;
55575;SDS011;41437;45.478;9.116;2023-03-23T15:31:35;13.07;;;7.70;;
55575;SDS011;41437;45.478;9.116;2023-03-23T15:34:40;12.27;;;7.38;;
55575;SDS011;41437;45.478;9.116;2023-03-23T15:37:46;11.13;;;6.88;;
55575;SDS011;41437;45.478;9.116;2023-03-23T15:40:51;10.88;;;6.97;;
55575;SDS011;41437;45.478;9.116;2023-03-23T15:43:56;12.63;;;7.88;;
55575;SDS011;41437;45.478;9.116;2023-03-23T15:47:18;11.05;;;7.15;;
55575;SDS011;41437;45.478;9.116;2023-03-23T15:50:32;11.10;;;6.75;;
55575;SDS011;41437;45.478;9.116;2023-03-23T15:53:49;13.65;;;7.78;;
55575;SDS011;41437;45.478;9.116;2023-03-23T15:56:53;11.52;;;8.10;;
55575;SDS011;41437;45.478;9.116;2023-03-23T15:59:54;11.02;;;7.30;;
55575;SDS011;41437;45.478;9.116;2023-03-23T16:02:59;11.77;;;7.00;;
55575;SDS011;41437;45.478;9.116;2023-03-23T16:06:02;13.77;;;7.47;;
55575;SDS011;41437;45.478;9.116;2023-03-23T16:09:05;12.05;;;7.18;;
55575;SDS011;41437;45.478;9.116;2023-03-23T16:12:10;10.65;;;7.07;;
55575;SDS011;41437;45.478;9.116;2023-03-23T16:15:15;16.98;;;7.93;;
55575;SDS011;41437;45.478;9.116;2023-03-23T16:18:21;13.02;;;7.32;;
55575;SDS011;41437;45.478;9.116;2023-03-23T16:21:23;12.02;;;7.88;;
55575;SDS011;41437;45.478;9.116;2023-03-23T16:24:25;11.02;;;7.88;;
55575;SDS011;41437;45.478;9.116;2023-03-23T16:27:26;12.73;;;7.55;;
55575;SDS011;41437;45.478;9.116;2023-03-23T16:30:31;12.38;;;7.38;;
55575;SDS011;41437;45.478;9.116;2023-03-23T16:33:36;12.40;;;7.47;;
55575;SDS011;41437;45.478;9.116;2023-03-23T16:36:38;11.75;;;7.70;;
55575;SDS011;41437;45.478;9.116;2023-03-23T16:39:40;14.80;;;7.45;;
55575;SDS011;41437;45.478;9.116;2023-03-23T16:42:43;14.60;;;7.90;;
55575;SDS011;41437;45.478;9.116;2023-03-23T16:45:45;14.45;;;7.88;;
55575;SDS011;41437;45.478;9.116;2023-03-23T16:48:49;10.85;;;7.30;;
55575;SDS011;41437;45.478;9.116;2023-03-23T16:51:50;10.60;;;7.65;;
55575;SDS011;41437;45.478;9.116;2023-03-23T16:54:52;13.60;;;7.55;;
55575;SDS011;41437;45.478;9.116;2023-03-23T16:57:53;14.85;;;7.38;;
55575;SDS011;41437;45.478;9.116;2023-03-23T17:00:55;17.25;;;8.10;;
55575;SDS011;41437;45.478;9.116;2023-03-23T17:04:08;13.13;;;6.75;;
55575;SDS011;41437;45.478;9.116;2023-03-23T17:07:11;14.90;;;6.47;;
55575;SDS011;41437;45.478;9.116;2023-03-23T17:10:17;9.60;;;6.30;;
55575;SDS011;41437;45.478;9.116;2023-03-23T17:13:19;9.95;;;5.88;;
55575;SDS011;41437;45.478;9.116;2023-03-23T17:16:20;9.32;;;5.68;;
55575;SDS011;41437;45.478;9.116;2023-03-23T17:19:23;9.95;;;5.50;;
55575;SDS011;41437;45.478;9.116;2023-03-23T17:22:26;12.18;;;5.97;;
55575;SDS011;41437;45.478;9.116;2023-03-23T17:25:28;7.70;;;5.47;;
55575;SDS011;41437;45.478;9.116;2023-03-23T17:28:32;10.30;;;5.43;;
55575;SDS011;41437;45.478;9.116;2023-03-23T17:31:33;7.78;;;5.10;;
55575;SDS011;41437;45.478;9.116;2023-03-23T17:34:40;9.82;;;4.90;;
55575;SDS011;41437;45.478;9.116;2023-03-23T17:37:42;12.35;;;4.88;;
55575;SDS011;41437;45.478;9.116;2023-03-23T17:40:43;7.65;;;4.38;;
55575;SDS011;41437;45.478;9.116;2023-03-23T17:43:47;8.02;;;4.53;;
55575;SDS011;41437;45.478;9.116;2023-03-23T17:46:49;8.50;;;4.88;;
55575;SDS011;41437;45.478;9.116;2023-03-23T17:50:02;10.93;;;4.60;;
55575;SDS011;41437;45.478;9.116;2023-03-23T17:53:04;7.57;;;4.45;;
55575;SDS011;41437;45.478;9.116;2023-03-23T17:56:06;8.25;;;4.70;;
55575;SDS011;41437;45.478;9.116;2023-03-23T17:59:12;11.80;;;4.82;;
55575;SDS011;41437;45.478;9.116;2023-03-23T18:02:17;10.65;;;4.60;;
55575;SDS011;41437;45.478;9.116;2023-03-23T18:05:22;6.95;;;4.32;;
55575;SDS011;41437;45.478;9.116;2023-03-23T18:08:26;10.63;;;4.75;;
55575;SDS011;41437;45.478;9.116;2023-03-23T18:11:29;8.77;;;4.25;;
55575;SDS011;41437;45.478;9.116;2023-03-23T18:14:32;9.15;;;4.35;;
55575;SDS011;41437;45.478;9.116;2023-03-23T18:17:43;8.70;;;4.80;;
55575;SDS011;41437;45.478;9.116;2023-03-23T18:20:48;7.50;;;4.43;;
55575;SDS011;41437;45.478;9.116;2023-03-23T18:23:56;11.85;;;4.50;;
55575;SDS011;41437;45.478;9.116;2023-03-23T18:26:58;9.30;;;4.80;;
55575;SDS011;41437;45.478;9.116;2023-03-23T18:30:01;9.45;;;4.60;;
55575;SDS011;41437;45.478;9.116;2023-03-23T18:33:03;10.27;;;4.65;;
55575;SDS011;41437;45.478;9.116;2023-03-23T18:36:06;8.77;;;4.88;;
55575;SDS011;41437;45.478;9.116;2023-03-23T18:39:11;11.60;;;4.82;;
55575;SDS011;41437;45.478;9.116;2023-03-23T18:42:13;7.53;;;5.03;;
55575;SDS011;41437;45.478;9.116;2023-03-23T18:45:15;9.45;;;4.53;;
55575;SDS011;41437;45.478;9.116;2023-03-23T18:48:17;11.85;;;4.93;;
55575;SDS011;41437;45.478;9.116;2023-03-23T18:51:24;9.45;;;4.78;;
55575;SDS011;41437;45.478;9.116;2023-03-23T18:54:29;8.38;;;5.00;;
55575;SDS011;41437;45.478;9.116;2023-03-23T18:57:33;13.18;;;4.85;;
55575;SDS011;41437;45.478;9.116;2023-03-23T19:00:36;9.80;;;5.05;;